Gakona, Alaska
Current Conditions -  °F | °C
As of 2:53 AM on Tuesday 27 Jan 2015 (Local Time) from PAOR Reporting Station
Scattered Clouds Scattered Clouds  
Wind Chill: -29°   Ceiling: Unl
Heat Index: -29°   Visibility: 10mi
Dew Point: -35°   Wind: 0mph
Humidity: 73%   Direction: NA
Pressure: 30.02"   Gusts: NA
Location:  62.43°N, 142.97°W
Report Text: PAOR 271153Z 00000KT 10SM FEW180 SCT200 M34/M37 A3002 RMK AO2 SLP265 4/009 T13391372 11300 21339 51002
Loading
Personal Weather Stations






























Interactive Weather Map New forecast layout! Learn more

10-Day Weather Forecast

Advertisements
Track Severe Weather on mobile